sensor_id;sensor_type;location;lat;lon;timestamp;temperature;humidity
76305;DHT22;65111;50.536;19.204;2023-02-01T00:00:27;2.00;95.30
76305;DHT22;65111;50.536;19.204;2023-02-01T00:02:53;2.20;95.40
76305;DHT22;65111;50.536;19.204;2023-02-01T00:05:19;1.80;95.40
76305;DHT22;65111;50.536;19.204;2023-02-01T00:07:47;1.70;95.40
76305;DHT22;65111;50.536;19.204;2023-02-01T00:10:14;1.70;95.60
76305;DHT22;65111;50.536;19.204;2023-02-01T00:12:40;1.90;96.10
76305;DHT22;65111;50.536;19.204;2023-02-01T00:15:07;1.90;96.40
76305;DHT22;65111;50.536;19.204;2023-02-01T00:17:33;1.90;96.60
76305;DHT22;65111;50.536;19.204;2023-02-01T00:19:59;2.00;96.60
76305;DHT22;65111;50.536;19.204;2023-02-01T00:22:25;1.90;96.40
76305;DHT22;65111;50.536;19.204;2023-02-01T00:24:50;2.10;96.20
76305;DHT22;65111;50.536;19.204;2023-02-01T00:27:16;2.20;96.20
76305;DHT22;65111;50.536;19.204;2023-02-01T00:29:45;2.20;96.10
76305;DHT22;65111;50.536;19.204;2023-02-01T00:32:12;2.10;96.10
76305;DHT22;65111;50.536;19.204;2023-02-01T00:34:38;2.10;96.00
76305;DHT22;65111;50.536;19.204;2023-02-01T00:37:03;2.20;95.90
76305;DHT22;65111;50.536;19.204;2023-02-01T00:39:29;2.10;95.70
76305;DHT22;65111;50.536;19.204;2023-02-01T00:41:55;2.10;95.50
76305;DHT22;65111;50.536;19.204;2023-02-01T00:44:21;2.20;95.60
76305;DHT22;65111;50.536;19.204;2023-02-01T00:46:47;2.20;95.50
76305;DHT22;65111;50.536;19.204;2023-02-01T00:49:13;2.20;95.50
76305;DHT22;65111;50.536;19.204;2023-02-01T00:51:39;2.20;95.40
76305;DHT22;65111;50.536;19.204;2023-02-01T00:54:05;2.20;95.40
76305;DHT22;65111;50.536;19.204;2023-02-01T00:56:31;2.20;95.50
76305;DHT22;65111;50.536;19.204;2023-02-01T00:58:57;2.20;95.20
76305;DHT22;65111;50.536;19.204;2023-02-01T01:01:25;2.20;95.30
76305;DHT22;65111;50.536;19.204;2023-02-01T01:03:55;2.20;95.20
76305;DHT22;65111;50.536;19.204;2023-02-01T01:06:23;2.00;95.30
76305;DHT22;65111;50.536;19.204;2023-02-01T01:08:54;2.00;95.20
76305;DHT22;65111;50.536;19.204;2023-02-01T01:11:24;2.10;95.10
76305;DHT22;65111;50.536;19.204;2023-02-01T01:13:52;2.00;95.00
76305;DHT22;65111;50.536;19.204;2023-02-01T01:16:19;1.90;95.00
76305;DHT22;65111;50.536;19.204;2023-02-01T01:18:45;2.10;95.10
76305;DHT22;65111;50.536;19.204;2023-02-01T01:21:14;2.10;95.20
76305;DHT22;65111;50.536;19.204;2023-02-01T01:23:40;1.90;95.20
76305;DHT22;65111;50.536;19.204;2023-02-01T01:26:12;2.00;95.10
76305;DHT22;65111;50.536;19.204;2023-02-01T01:28:39;2.00;95.00
76305;DHT22;65111;50.536;19.204;2023-02-01T01:31:09;1.90;94.90
76305;DHT22;65111;50.536;19.204;2023-02-01T01:33:36;2.10;94.90
76305;DHT22;65111;50.536;19.204;2023-02-01T01:36:05;2.10;94.70
76305;DHT22;65111;50.536;19.204;2023-02-01T01:38:31;2.20;94.40
76305;DHT22;65111;50.536;19.204;2023-02-01T01:40:57;2.00;94.30
76305;DHT22;65111;50.536;19.204;2023-02-01T01:43:23;2.00;94.00
76305;DHT22;65111;50.536;19.204;2023-02-01T01:45:49;2.00;94.10
76305;DHT22;65111;50.536;19.204;2023-02-01T01:48:29;2.00;94.20
76305;DHT22;65111;50.536;19.204;2023-02-01T01:51:10;1.90;94.30
76305;DHT22;65111;50.536;19.204;2023-02-01T01:53:49;1.90;94.10
76305;DHT22;65111;50.536;19.204;2023-02-01T01:56:17;2.10;93.80
76305;DHT22;65111;50.536;19.204;2023-02-01T01:58:43;2.10;93.80
76305;DHT22;65111;50.536;19.204;2023-02-01T02:01:09;2.00;93.70
76305;DHT22;65111;50.536;19.204;2023-02-01T02:03:43;1.90;93.70
76305;DHT22;65111;50.536;19.204;2023-02-01T02:06:23;1.80;93.80
76305;DHT22;65111;50.536;19.204;2023-02-01T02:08:52;1.70;94.10
76305;DHT22;65111;50.536;19.204;2023-02-01T02:11:18;1.80;94.30
76305;DHT22;65111;50.536;19.204;2023-02-01T02:13:48;1.70;94.30
76305;DHT22;65111;50.536;19.204;2023-02-01T02:36:12;1.50;95.00
76305;DHT22;65111;50.536;19.204;2023-02-01T02:41:19;1.60;94.60
76305;DHT22;65111;50.536;19.204;2023-02-01T02:47:52;1.50;95.10
76305;DHT22;65111;50.536;19.204;2023-02-01T02:50:29;1.50;95.40
76305;DHT22;65111;50.536;19.204;2023-02-01T02:53:19;1.40;95.60
76305;DHT22;65111;50.536;19.204;2023-02-01T02:56:08;1.70;95.60
76305;DHT22;65111;50.536;19.204;2023-02-01T02:58:54;1.60;95.60
76305;DHT22;65111;50.536;19.204;2023-02-01T03:01:40;1.90;95.60
76305;DHT22;65111;50.536;19.204;2023-02-01T03:04:25;1.90;95.40
76305;DHT22;65111;50.536;19.204;2023-02-01T03:06:52;1.80;95.30
76305;DHT22;65111;50.536;19.204;2023-02-01T03:09:44;2.00;95.20
76305;DHT22;65111;50.536;19.204;2023-02-01T03:12:13;2.00;95.20
76305;DHT22;65111;50.536;19.204;2023-02-01T03:15:05;1.90;94.90
76305;DHT22;65111;50.536;19.204;2023-02-01T03:17:39;1.90;95.00
76305;DHT22;65111;50.536;19.204;2023-02-01T03:20:09;1.90;94.80
76305;DHT22;65111;50.536;19.204;2023-02-01T03:22:37;1.90;94.80
76305;DHT22;65111;50.536;19.204;2023-02-01T03:25:12;1.90;94.80
76305;DHT22;65111;50.536;19.204;2023-02-01T03:27:56;2.10;94.60
76305;DHT22;65111;50.536;19.204;2023-02-01T03:30:28;1.90;94.60
76305;DHT22;65111;50.536;19.204;2023-02-01T03:32:58;2.20;94.50
76305;DHT22;65111;50.536;19.204;2023-02-01T03:35:50;1.90;94.30
76305;DHT22;65111;50.536;19.204;2023-02-01T03:38:30;2.10;94.50
76305;DHT22;65111;50.536;19.204;2023-02-01T03:41:12;2.10;94.30
76305;DHT22;65111;50.536;19.204;2023-02-01T03:44:08;2.00;94.20
76305;DHT22;65111;50.536;19.204;2023-02-01T03:46:45;2.00;94.20
76305;DHT22;65111;50.536;19.204;2023-02-01T03:49:20;2.00;94.10
76305;DHT22;65111;50.536;19.204;2023-02-01T03:51:50;2.00;93.90
76305;DHT22;65111;50.536;19.204;2023-02-01T03:54:18;2.20;93.90
76305;DHT22;65111;50.536;19.204;2023-02-01T03:56:46;2.10;93.50
76305;DHT22;65111;50.536;19.204;2023-02-01T03:59:14;2.20;93.70
76305;DHT22;65111;50.536;19.204;2023-02-01T04:01:40;2.20;93.50
76305;DHT22;65111;50.536;19.204;2023-02-01T04:04:06;2.20;93.40
76305;DHT22;65111;50.536;19.204;2023-02-01T04:06:32;2.20;93.40
76305;DHT22;65111;50.536;19.204;2023-02-01T04:08:58;2.20;93.30
76305;DHT22;65111;50.536;19.204;2023-02-01T04:11:24;2.20;93.30
76305;DHT22;65111;50.536;19.204;2023-02-01T04:13:50;2.20;93.30
76305;DHT22;65111;50.536;19.204;2023-02-01T04:16:16;2.10;93.20
76305;DHT22;65111;50.536;19.204;2023-02-01T04:18:42;2.00;93.20
76305;DHT22;65111;50.536;19.204;2023-02-01T04:21:08;2.00;93.10
76305;DHT22;65111;50.536;19.204;2023-02-01T04:23:34;2.20;93.30
76305;DHT22;65111;50.536;19.204;2023-02-01T04:26:03;2.00;93.20
76305;DHT22;65111;50.536;19.204;2023-02-01T04:28:30;2.00;93.30
76305;DHT22;65111;50.536;19.204;2023-02-01T04:30:56;2.10;93.20
76305;DHT22;65111;50.536;19.204;2023-02-01T04:33:22;2.10;93.20
76305;DHT22;65111;50.536;19.204;2023-02-01T04:35:49;2.30;93.40
76305;DHT22;65111;50.536;19.204;2023-02-01T04:38:14;2.20;93.20
76305;DHT22;65111;50.536;19.204;2023-02-01T04:40:40;2.20;93.30
76305;DHT22;65111;50.536;19.204;2023-02-01T04:43:06;2.10;93.20
76305;DHT22;65111;50.536;19.204;2023-02-01T04:45:33;2.20;93.30
76305;DHT22;65111;50.536;19.204;2023-02-01T04:47:59;2.00;93.30
76305;DHT22;65111;50.536;19.204;2023-02-01T04:50:25;2.10;93.30
76305;DHT22;65111;50.536;19.204;2023-02-01T04:52:51;1.80;93.40
76305;DHT22;65111;50.536;19.204;2023-02-01T04:55:17;2.00;93.50
76305;DHT22;65111;50.536;19.204;2023-02-01T04:57:43;2.10;93.50
76305;DHT22;65111;50.536;19.204;2023-02-01T05:00:10;2.00;93.40
76305;DHT22;65111;50.536;19.204;2023-02-01T05:02:36;1.90;93.60
76305;DHT22;65111;50.536;19.204;2023-02-01T05:05:03;2.00;93.60
76305;DHT22;65111;50.536;19.204;2023-02-01T05:07:29;2.00;93.70
76305;DHT22;65111;50.536;19.204;2023-02-01T05:09:55;1.90;93.80
76305;DHT22;65111;50.536;19.204;2023-02-01T05:12:21;2.00;93.80
76305;DHT22;65111;50.536;19.204;2023-02-01T05:15:06;1.90;93.60
76305;DHT22;65111;50.536;19.204;2023-02-01T05:17:32;1.90;93.70
76305;DHT22;65111;50.536;19.204;2023-02-01T05:19:58;1.90;93.50
76305;DHT22;65111;50.536;19.204;2023-02-01T05:22:24;1.80;93.50
76305;DHT22;65111;50.536;19.204;2023-02-01T05:24:50;1.80;93.20
76305;DHT22;65111;50.536;19.204;2023-02-01T05:27:16;1.70;93.00
76305;DHT22;65111;50.536;19.204;2023-02-01T05:29:42;1.50;93.30
76305;DHT22;65111;50.536;19.204;2023-02-01T05:32:09;1.40;93.70
76305;DHT22;65111;50.536;19.204;2023-02-01T05:34:36;1.50;94.50
76305;DHT22;65111;50.536;19.204;2023-02-01T05:37:02;1.70;94.70
76305;DHT22;65111;50.536;19.204;2023-02-01T05:39:28;1.40;94.80
76305;DHT22;65111;50.536;19.204;2023-02-01T05:41:54;1.60;94.90
76305;DHT22;65111;50.536;19.204;2023-02-01T05:44:20;1.60;94.80
76305;DHT22;65111;50.536;19.204;2023-02-01T05:46:46;1.40;94.90
76305;DHT22;65111;50.536;19.204;2023-02-01T05:49:12;1.50;94.80
76305;DHT22;65111;50.536;19.204;2023-02-01T05:51:38;1.70;94.80
76305;DHT22;65111;50.536;19.204;2023-02-01T05:54:04;1.50;94.60
76305;DHT22;65111;50.536;19.204;2023-02-01T05:56:30;1.70;94.40
76305;DHT22;65111;50.536;19.204;2023-02-01T05:58:56;1.70;94.40
76305;DHT22;65111;50.536;19.204;2023-02-01T06:01:22;1.80;94.30
76305;DHT22;65111;50.536;19.204;2023-02-01T06:03:48;1.80;94.30
76305;DHT22;65111;50.536;19.204;2023-02-01T06:06:14;1.80;94.10
76305;DHT22;65111;50.536;19.204;2023-02-01T06:08:40;1.80;94.00
76305;DHT22;65111;50.536;19.204;2023-02-01T06:11:06;1.80;93.80
76305;DHT22;65111;50.536;19.204;2023-02-01T06:13:32;1.90;93.80
76305;DHT22;65111;50.536;19.204;2023-02-01T06:15:58;1.90;93.50
76305;DHT22;65111;50.536;19.204;2023-02-01T06:18:24;2.00;93.60
76305;DHT22;65111;50.536;19.204;2023-02-01T06:20:55;1.90;93.50
76305;DHT22;65111;50.536;19.204;2023-02-01T06:23:21;2.00;93.30
76305;DHT22;65111;50.536;19.204;2023-02-01T06:25:51;1.90;93.20
76305;DHT22;65111;50.536;19.204;2023-02-01T06:28:17;2.00;93.20
76305;DHT22;65111;50.536;19.204;2023-02-01T06:30:43;2.00;93.00
76305;DHT22;65111;50.536;19.204;2023-02-01T06:33:14;2.00;93.00
76305;DHT22;65111;50.536;19.204;2023-02-01T06:35:43;2.00;92.80
76305;DHT22;65111;50.536;19.204;2023-02-01T06:38:11;2.10;92.70
76305;DHT22;65111;50.536;19.204;2023-02-01T06:40:38;2.10;92.50
76305;DHT22;65111;50.536;19.204;2023-02-01T06:43:04;2.00;92.50
76305;DHT22;65111;50.536;19.204;2023-02-01T06:45:30;2.20;92.50
76305;DHT22;65111;50.536;19.204;2023-02-01T06:47:58;2.20;92.30
76305;DHT22;65111;50.536;19.204;2023-02-01T06:50:25;2.20;92.00
76305;DHT22;65111;50.536;19.204;2023-02-01T06:52:52;2.10;91.80
76305;DHT22;65111;50.536;19.204;2023-02-01T06:55:18;2.10;91.80
76305;DHT22;65111;50.536;19.204;2023-02-01T06:57:43;2.30;91.60
76305;DHT22;65111;50.536;19.204;2023-02-01T07:00:10;2.20;91.50
76305;DHT22;65111;50.536;19.204;2023-02-01T07:02:36;2.30;91.50
76305;DHT22;65111;50.536;19.204;2023-02-01T07:05:04;2.40;91.50
76305;DHT22;65111;50.536;19.204;2023-02-01T07:07:30;2.30;91.40
76305;DHT22;65111;50.536;19.204;2023-02-01T07:09:55;2.30;91.20
76305;DHT22;65111;50.536;19.204;2023-02-01T07:12:21;2.30;91.10
76305;DHT22;65111;50.536;19.204;2023-02-01T07:14:47;2.50;91.10
76305;DHT22;65111;50.536;19.204;2023-02-01T07:17:13;2.40;91.00
76305;DHT22;65111;50.536;19.204;2023-02-01T07:19:39;2.40;90.90
76305;DHT22;65111;50.536;19.204;2023-02-01T07:22:05;2.20;90.70
76305;DHT22;65111;50.536;19.204;2023-02-01T07:24:31;2.40;90.70
76305;DHT22;65111;50.536;19.204;2023-02-01T07:26:57;2.30;90.70
76305;DHT22;65111;50.536;19.204;2023-02-01T07:29:23;2.20;90.80
76305;DHT22;65111;50.536;19.204;2023-02-01T07:31:49;2.50;90.40
76305;DHT22;65111;50.536;19.204;2023-02-01T07:34:15;2.60;90.10
76305;DHT22;65111;50.536;19.204;2023-02-01T07:36:41;2.60;89.90
76305;DHT22;65111;50.536;19.204;2023-02-01T07:39:07;2.70;89.70
76305;DHT22;65111;50.536;19.204;2023-02-01T07:41:33;2.50;89.70
76305;DHT22;65111;50.536;19.204;2023-02-01T07:43:59;2.60;89.60
76305;DHT22;65111;50.536;19.204;2023-02-01T07:46:25;2.80;89.40
76305;DHT22;65111;50.536;19.204;2023-02-01T07:48:51;2.70;89.20
76305;DHT22;65111;50.536;19.204;2023-02-01T07:51:17;2.80;88.90
76305;DHT22;65111;50.536;19.204;2023-02-01T07:53:44;2.90;88.80
76305;DHT22;65111;50.536;19.204;2023-02-01T07:56:16;2.80;88.50
76305;DHT22;65111;50.536;19.204;2023-02-01T07:58:43;2.70;88.50
76305;DHT22;65111;50.536;19.204;2023-02-01T08:01:24;2.90;88.60
76305;DHT22;65111;50.536;19.204;2023-02-01T08:03:53;3.10;88.50
76305;DHT22;65111;50.536;19.204;2023-02-01T08:06:20;3.00;88.30
76305;DHT22;65111;50.536;19.204;2023-02-01T08:08:47;2.90;88.20
76305;DHT22;65111;50.536;19.204;2023-02-01T08:11:14;3.10;88.20
76305;DHT22;65111;50.536;19.204;2023-02-01T08:13:41;3.10;88.00
76305;DHT22;65111;50.536;19.204;2023-02-01T08:16:09;3.10;87.80
76305;DHT22;65111;50.536;19.204;2023-02-01T08:18:36;3.10;87.60
76305;DHT22;65111;50.536;19.204;2023-02-01T08:21:05;3.20;87.30
76305;DHT22;65111;50.536;19.204;2023-02-01T08:23:36;3.30;87.10
76305;DHT22;65111;50.536;19.204;2023-02-01T08:26:27;3.10;87.40
76305;DHT22;65111;50.536;19.204;2023-02-01T08:28:58;3.30;87.10
76305;DHT22;65111;50.536;19.204;2023-02-01T08:31:26;3.40;87.20
76305;DHT22;65111;50.536;19.204;2023-02-01T08:33:55;3.60;87.00
76305;DHT22;65111;50.536;19.204;2023-02-01T08:36:23;3.60;86.70
76305;DHT22;65111;50.536;19.204;2023-02-01T08:38:50;4.00;86.20
76305;DHT22;65111;50.536;19.204;2023-02-01T08:41:18;4.10;86.00
76305;DHT22;65111;50.536;19.204;2023-02-01T08:43:45;4.40;85.10
76305;DHT22;65111;50.536;19.204;2023-02-01T08:46:11;4.60;84.60
76305;DHT22;65111;50.536;19.204;2023-02-01T08:48:38;4.50;84.20
76305;DHT22;65111;50.536;19.204;2023-02-01T08:51:07;4.50;84.00
76305;DHT22;65111;50.536;19.204;2023-02-01T08:53:34;4.50;83.90
76305;DHT22;65111;50.536;19.204;2023-02-01T08:56:01;4.40;83.60
76305;DHT22;65111;50.536;19.204;2023-02-01T08:58:28;4.50;83.60
76305;DHT22;65111;50.536;19.204;2023-02-01T09:00:54;4.80;83.30
76305;DHT22;65111;50.536;19.204;2023-02-01T09:03:20;4.80;83.40
76305;DHT22;65111;50.536;19.204;2023-02-01T09:05:47;4.80;82.80
76305;DHT22;65111;50.536;19.204;2023-02-01T09:08:13;5.10;82.10
76305;DHT22;65111;50.536;19.204;2023-02-01T09:10:41;5.30;82.10
76305;DHT22;65111;50.536;19.204;2023-02-01T09:13:08;5.40;81.50
76305;DHT22;65111;50.536;19.204;2023-02-01T09:15:34;5.20;81.30
76305;DHT22;65111;50.536;19.204;2023-02-01T09:18:00;5.40;81.30
76305;DHT22;65111;50.536;19.204;2023-02-01T09:20:27;5.30;81.00
76305;DHT22;65111;50.536;19.204;2023-02-01T09:22:54;5.50;80.50
76305;DHT22;65111;50.536;19.204;2023-02-01T09:25:20;5.20;80.90
76305;DHT22;65111;50.536;19.204;2023-02-01T09:27:46;4.90;81.60
76305;DHT22;65111;50.536;19.204;2023-02-01T09:30:12;5.20;81.60
76305;DHT22;65111;50.536;19.204;2023-02-01T09:32:39;5.30;82.00
76305;DHT22;65111;50.536;19.204;2023-02-01T09:35:05;4.90;81.90
76305;DHT22;65111;50.536;19.204;2023-02-01T09:37:31;5.20;81.60
76305;DHT22;65111;50.536;19.204;2023-02-01T09:39:58;4.90;81.80
76305;DHT22;65111;50.536;19.204;2023-02-01T09:42:45;4.80;82.00
76305;DHT22;65111;50.536;19.204;2023-02-01T09:47:51;4.80;82.10
76305;DHT22;65111;50.536;19.204;2023-02-01T09:50:35;4.80;82.20
76305;DHT22;65111;50.536;19.204;2023-02-01T09:55:50;4.80;82.40
76305;DHT22;65111;50.536;19.204;2023-02-01T09:58:24;4.90;82.10
76305;DHT22;65111;50.536;19.204;2023-02-01T10:00:56;5.30;81.80
76305;DHT22;65111;50.536;19.204;2023-02-01T10:03:34;5.40;81.40
76305;DHT22;65111;50.536;19.204;2023-02-01T10:27:50;7.10;74.40
76305;DHT22;65111;50.536;19.204;2023-02-01T10:30:22;6.90;74.70
76305;DHT22;65111;50.536;19.204;2023-02-01T10:33:07;6.90;74.70
76305;DHT22;65111;50.536;19.204;2023-02-01T10:35:38;6.60;74.80
76305;DHT22;65111;50.536;19.204;2023-02-01T10:38:20;6.40;74.90
76305;DHT22;65111;50.536;19.204;2023-02-01T10:40:49;6.30;75.50
76305;DHT22;65111;50.536;19.204;2023-02-01T10:43:16;6.30;75.90
76305;DHT22;65111;50.536;19.204;2023-02-01T10:45:42;6.10;76.20
76305;DHT22;65111;50.536;19.204;2023-02-01T10:48:09;5.90;76.70
76305;DHT22;65111;50.536;19.204;2023-02-01T10:50:58;5.70;77.30
76305;DHT22;65111;50.536;19.204;2023-02-01T10:53:46;5.70;78.10
76305;DHT22;65111;50.536;19.204;2023-02-01T10:56:14;5.60;78.40
76305;DHT22;65111;50.536;19.204;2023-02-01T10:58:45;5.70;78.70
76305;DHT22;65111;50.536;19.204;2023-02-01T11:01:43;5.60;79.10
76305;DHT22;65111;50.536;19.204;2023-02-01T11:04:11;5.80;78.70
76305;DHT22;65111;50.536;19.204;2023-02-01T11:06:41;5.60;78.70
76305;DHT22;65111;50.536;19.204;2023-02-01T11:11:54;5.60;78.40
76305;DHT22;65111;50.536;19.204;2023-02-01T11:16:53;6.00;78.20
76305;DHT22;65111;50.536;19.204;2023-02-01T11:19:20;6.10;78.40
76305;DHT22;65111;50.536;19.204;2023-02-01T11:21:57;6.00;77.80
76305;DHT22;65111;50.536;19.204;2023-02-01T11:24:31;6.00;78.00
76305;DHT22;65111;50.536;19.204;2023-02-01T11:27:03;6.10;78.20
76305;DHT22;65111;50.536;19.204;2023-02-01T11:29:38;6.00;78.10
76305;DHT22;65111;50.536;19.204;2023-02-01T11:32:08;6.00;78.30
76305;DHT22;65111;50.536;19.204;2023-02-01T11:34:41;6.00;78.20
76305;DHT22;65111;50.536;19.204;2023-02-01T11:37:38;5.90;78.30
76305;DHT22;65111;50.536;19.204;2023-02-01T11:42:59;5.90;78.10
76305;DHT22;65111;50.536;19.204;2023-02-01T11:45:30;5.90;78.70
76305;DHT22;65111;50.536;19.204;2023-02-01T11:47:58;5.90;79.00
76305;DHT22;65111;50.536;19.204;2023-02-01T11:50:34;5.90;79.20
76305;DHT22;65111;50.536;19.204;2023-02-01T11:53:15;5.50;79.80
76305;DHT22;65111;50.536;19.204;2023-02-01T12:01:37;5.50;80.70
76305;DHT22;65111;50.536;19.204;2023-02-01T12:06:50;5.80;80.90
76305;DHT22;65111;50.536;19.204;2023-02-01T12:28:55;6.40;79.10
76305;DHT22;65111;50.536;19.204;2023-02-01T12:37:06;6.20;78.90
76305;DHT22;65111;50.536;19.204;2023-02-01T12:42:35;5.70;79.60
76305;DHT22;65111;50.536;19.204;2023-02-01T12:45:14;5.50;79.80
76305;DHT22;65111;50.536;19.204;2023-02-01T12:48:00;5.50;80.10
76305;DHT22;65111;50.536;19.204;2023-02-01T12:50:47;5.50;80.60
76305;DHT22;65111;50.536;19.204;2023-02-01T12:53:21;5.40;80.50
76305;DHT22;65111;50.536;19.204;2023-02-01T12:55:53;5.70;80.20
76305;DHT22;65111;50.536;19.204;2023-02-01T13:06:20;5.50;79.50
76305;DHT22;65111;50.536;19.204;2023-02-01T13:08:53;5.30;79.90
76305;DHT22;65111;50.536;19.204;2023-02-01T13:11:39;5.10;79.90
76305;DHT22;65111;50.536;19.204;2023-02-01T13:17:01;5.20;79.80
76305;DHT22;65111;50.536;19.204;2023-02-01T13:22:17;4.90;80.10
76305;DHT22;65111;50.536;19.204;2023-02-01T13:24:55;4.90;80.50
76305;DHT22;65111;50.536;19.204;2023-02-01T13:27:26;4.80;80.90
76305;DHT22;65111;50.536;19.204;2023-02-01T13:30:21;4.60;81.50
76305;DHT22;65111;50.536;19.204;2023-02-01T13:35:43;4.60;82.20
76305;DHT22;65111;50.536;19.204;2023-02-01T13:43:30;4.40;84.00
76305;DHT22;65111;50.536;19.204;2023-02-01T13:46:04;4.20;84.50
76305;DHT22;65111;50.536;19.204;2023-02-01T13:49:00;4.30;84.50
76305;DHT22;65111;50.536;19.204;2023-02-01T13:51:40;4.10;84.60
76305;DHT22;65111;50.536;19.204;2023-02-01T13:54:06;4.20;85.00
76305;DHT22;65111;50.536;19.204;2023-02-01T13:56:41;3.90;85.40
76305;DHT22;65111;50.536;19.204;2023-02-01T14:16:42;3.50;88.60
76305;DHT22;65111;50.536;19.204;2023-02-01T14:21:55;3.40;89.20
76305;DHT22;65111;50.536;19.204;2023-02-01T14:24:38;3.20;89.30
76305;DHT22;65111;50.536;19.204;2023-02-01T14:27:18;3.30;89.10
76305;DHT22;65111;50.536;19.204;2023-02-01T14:29:52;3.30;89.30
76305;DHT22;65111;50.536;19.204;2023-02-01T14:32:43;3.20;89.20
76305;DHT22;65111;50.536;19.204;2023-02-01T14:35:25;3.30;89.30
76305;DHT22;65111;50.536;19.204;2023-02-01T14:37:54;3.30;89.40
76305;DHT22;65111;50.536;19.204;2023-02-01T14:40:26;3.00;89.40
76305;DHT22;65111;50.536;19.204;2023-02-01T14:42:54;3.10;89.50
76305;DHT22;65111;50.536;19.204;2023-02-01T14:50:37;2.90;89.90
76305;DHT22;65111;50.536;19.204;2023-02-01T14:55:53;2.70;90.20
76305;DHT22;65111;50.536;19.204;2023-02-01T15:06:36;2.60;91.00
76305;DHT22;65111;50.536;19.204;2023-02-01T15:09:30;2.50;91.10
76305;DHT22;65111;50.536;19.204;2023-02-01T15:12:01;2.50;91.50
76305;DHT22;65111;50.536;19.204;2023-02-01T15:14:30;2.70;91.70
76305;DHT22;65111;50.536;19.204;2023-02-01T15:16:57;2.70;91.80
76305;DHT22;65111;50.536;19.204;2023-02-01T15:19:25;2.70;91.80
76305;DHT22;65111;50.536;19.204;2023-02-01T15:21:56;2.70;92.00
76305;DHT22;65111;50.536;19.204;2023-02-01T15:24:25;2.40;92.00
76305;DHT22;65111;50.536;19.204;2023-02-01T15:26:53;2.40;92.00
76305;DHT22;65111;50.536;19.204;2023-02-01T15:29:22;2.60;92.10
76305;DHT22;65111;50.536;19.204;2023-02-01T15:31:52;2.60;92.30
76305;DHT22;65111;50.536;19.204;2023-02-01T15:34:19;2.80;92.30
76305;DHT22;65111;50.536;19.204;2023-02-01T15:36:46;2.70;92.30
76305;DHT22;65111;50.536;19.204;2023-02-01T15:39:16;2.60;92.40
76305;DHT22;65111;50.536;19.204;2023-02-01T15:41:51;2.60;92.40
76305;DHT22;65111;50.536;19.204;2023-02-01T15:44:39;2.60;92.40
76305;DHT22;65111;50.536;19.204;2023-02-01T15:47:32;2.70;92.50
76305;DHT22;65111;50.536;19.204;2023-02-01T15:49:59;2.50;92.60
76305;DHT22;65111;50.536;19.204;2023-02-01T15:52:53;2.80;92.50
76305;DHT22;65111;50.536;19.204;2023-02-01T15:57:56;2.70;92.80
76305;DHT22;65111;50.536;19.204;2023-02-01T16:00:28;2.60;92.80
76305;DHT22;65111;50.536;19.204;2023-02-01T16:02:57;2.50;92.80
76305;DHT22;65111;50.536;19.204;2023-02-01T16:08:23;2.50;92.80
76305;DHT22;65111;50.536;19.204;2023-02-01T16:10:52;2.50;93.10
76305;DHT22;65111;50.536;19.204;2023-02-01T16:13:20;2.50;93.00
76305;DHT22;65111;50.536;19.204;2023-02-01T16:15:47;2.50;93.00
76305;DHT22;65111;50.536;19.204;2023-02-01T16:18:14;2.50;92.90
76305;DHT22;65111;50.536;19.204;2023-02-01T16:20:42;2.60;93.00
76305;DHT22;65111;50.536;19.204;2023-02-01T16:23:09;2.70;93.00
76305;DHT22;65111;50.536;19.204;2023-02-01T16:25:37;2.60;93.00
76305;DHT22;65111;50.536;19.204;2023-02-01T16:28:04;2.60;93.10
76305;DHT22;65111;50.536;19.204;2023-02-01T16:30:31;2.60;93.00
76305;DHT22;65111;50.536;19.204;2023-02-01T16:32:59;2.50;93.10
76305;DHT22;65111;50.536;19.204;2023-02-01T16:35:35;2.50;93.30
76305;DHT22;65111;50.536;19.204;2023-02-01T16:38:02;2.60;93.40
76305;DHT22;65111;50.536;19.204;2023-02-01T16:40:34;2.70;93.50
76305;DHT22;65111;50.536;19.204;2023-02-01T16:43:01;2.60;93.70
76305;DHT22;65111;50.536;19.204;2023-02-01T16:45:27;2.50;93.70
76305;DHT22;65111;50.536;19.204;2023-02-01T16:47:55;2.60;93.50
76305;DHT22;65111;50.536;19.204;2023-02-01T16:50:24;2.60;93.60
76305;DHT22;65111;50.536;19.204;2023-02-01T16:52:52;2.60;93.90
76305;DHT22;65111;50.536;19.204;2023-02-01T16:55:20;2.60;94.00
76305;DHT22;65111;50.536;19.204;2023-02-01T16:57:47;2.50;93.80
76305;DHT22;65111;50.536;19.204;2023-02-01T17:00:14;2.70;93.80
76305;DHT22;65111;50.536;19.204;2023-02-01T17:02:44;2.60;93.70
76305;DHT22;65111;50.536;19.204;2023-02-01T17:05:11;2.70;93.60
76305;DHT22;65111;50.536;19.204;2023-02-01T17:07:38;2.70;93.60
76305;DHT22;65111;50.536;19.204;2023-02-01T17:10:05;2.60;93.80
76305;DHT22;65111;50.536;19.204;2023-02-01T17:12:32;2.60;93.80
76305;DHT22;65111;50.536;19.204;2023-02-01T17:14:59;2.70;93.70
76305;DHT22;65111;50.536;19.204;2023-02-01T17:17:51;2.60;93.60
76305;DHT22;65111;50.536;19.204;2023-02-01T17:20:23;2.70;93.60
76305;DHT22;65111;50.536;19.204;2023-02-01T17:22:50;2.50;93.70
76305;DHT22;65111;50.536;19.204;2023-02-01T17:25:19;2.40;93.70
76305;DHT22;65111;50.536;19.204;2023-02-01T17:27:47;2.50;93.70
76305;DHT22;65111;50.536;19.204;2023-02-01T17:30:14;2.50;93.70
76305;DHT22;65111;50.536;19.204;2023-02-01T17:32:41;2.60;93.90
76305;DHT22;65111;50.536;19.204;2023-02-01T17:35:19;2.70;94.00
76305;DHT22;65111;50.536;19.204;2023-02-01T17:37:47;2.60;93.90
76305;DHT22;65111;50.536;19.204;2023-02-01T17:40:13;2.70;93.70
76305;DHT22;65111;50.536;19.204;2023-02-01T17:42:40;2.50;93.40
76305;DHT22;65111;50.536;19.204;2023-02-01T17:47:45;2.50;94.20
76305;DHT22;65111;50.536;19.204;2023-02-01T17:50:13;2.50;94.20
76305;DHT22;65111;50.536;19.204;2023-02-01T17:52:39;2.40;94.40
76305;DHT22;65111;50.536;19.204;2023-02-01T17:55:32;2.20;94.80
76305;DHT22;65111;50.536;19.204;2023-02-01T17:57:59;2.40;94.80
76305;DHT22;65111;50.536;19.204;2023-02-01T18:00:24;2.50;94.80
76305;DHT22;65111;50.536;19.204;2023-02-01T18:02:51;2.50;94.90
76305;DHT22;65111;50.536;19.204;2023-02-01T18:07:48;2.50;94.80
76305;DHT22;65111;50.536;19.204;2023-02-01T18:10:14;2.40;94.80
76305;DHT22;65111;50.536;19.204;2023-02-01T18:12:41;2.60;94.80
76305;DHT22;65111;50.536;19.204;2023-02-01T18:15:21;2.50;94.70
76305;DHT22;65111;50.536;19.204;2023-02-01T18:17:48;2.40;94.90
76305;DHT22;65111;50.536;19.204;2023-02-01T18:20:16;2.50;94.90
76305;DHT22;65111;50.536;19.204;2023-02-01T18:22:44;2.50;94.80
76305;DHT22;65111;50.536;19.204;2023-02-01T18:25:20;2.50;94.70
76305;DHT22;65111;50.536;19.204;2023-02-01T18:27:48;2.60;94.70
76305;DHT22;65111;50.536;19.204;2023-02-01T18:30:14;2.60;94.50
76305;DHT22;65111;50.536;19.204;2023-02-01T18:32:42;2.40;94.60
76305;DHT22;65111;50.536;19.204;2023-02-01T18:35:21;2.50;94.60